aviador You're here:

OTBD Decoded Metar

DOHA in QATAR
Report Time2017-09-26 03:00:00
UTC Time2017-09-26 03:35:12
Flight Rules vfr VFR
WindVRB at 02 kt
Visibility9999 m
Phenomena:N/A
Clouds:N/A
Expected CloudBase > 2,000 ft AGL from Temp-Dew spread
CeilingNone
Temp30°C (ISA +15)
Dew Point25°C (75% RH)
Heat Index36.3°C
QNH1007 hPa
Density Alt2,375 ft
Elevation33 ft
Report Wrong Elevation
Raw Report
OTBD 260300Z VRB02KT CAVOK 30/25 Q1007 NOSIG=

Extra information for OTBD:More info

Metar Taf Metar & Taf Last 4 Metars F.Rules Stats Wind Profile Meteogram Temp Stats Airport Information Weather charts Add Link Nearby VenuesMetar ALERT Operation Metar Decoded Social comments